Time;durP1;ratioP1;P1;durP2;ratioP2;P2;SDS_P1;SDS_P2;PMS_P1;PMS_P2;Temp;Humidity;BMP_temperature;BMP_pressure;BME280_temperature;BME280_humidity;BME280_pressure;Samples;Min_cycle;Max_cycle;Signal;HPM_P1;HPM_P2
2023/08/16 06:16:27;;;;;;;4.57;2.45;;;;;;;;;;5106301;23;20062;-76
2023/08/16 06:18:54;;;;;;;8.18;2.88;;;;;;;;;;4964877;28;20023;-75
2023/08/16 06:21:20;;;;;;;4.82;2.78;;;;;;;;;;4970541;28;20553;-75
2023/08/16 06:23:47;;;;;;;3.58;2.45;;;;;;;;;;4973370;28;20069;-75
2023/08/16 06:26:14;;;;;;;7.70;3.10;;;;;;;;;;4972944;28;20026;-75
2023/08/16 06:28:40;;;;;;;5.65;2.80;;;;;;;;;;4970933;28;20043;-75
2023/08/16 06:31:07;;;;;;;4.28;2.58;;;;;;;;;;4972792;28;20023;-75
2023/08/16 06:33:33;;;;;;;4.45;2.70;;;;;;;;;;4970701;28;20025;-76
2023/08/16 06:35:59;;;;;;;6.55;2.95;;;;;;;;;;4965968;28;20027;-75
2023/08/16 06:38:26;;;;;;;4.55;2.58;;;;;;;;;;4972529;28;20023;-76
2023/08/16 06:40:53;;;;;;;4.30;2.38;;;;;;;;;;4956025;28;20039;-75
2023/08/16 06:43:19;;;;;;;5.75;2.50;;;;;;;;;;4971971;28;20529;-76
2023/08/16 06:45:45;;;;;;;3.15;2.42;;;;;;;;;;4976593;28;20045;-74
2023/08/16 06:48:12;;;;;;;7.00;3.00;;;;;;;;;;4961614;28;20038;-74
2023/08/16 06:50:39;;;;;;;7.20;2.92;;;;;;;;;;4973795;28;20019;-76
2023/08/16 06:53:05;;;;;;;7.57;3.20;;;;;;;;;;4956216;29;20061;-76
2023/08/16 06:55:32;;;;;;;4.45;2.97;;;;;;;;;;4957485;29;20024;-75
2023/08/16 06:58:00;;;;;;;6.00;2.80;;;;;;;;;;4957276;28;20035;-76
2023/08/16 07:00:26;;;;;;;4.07;2.33;;;;;;;;;;4955729;29;20035;-75
2023/08/16 07:02:53;;;;;;;5.70;2.53;;;;;;;;;;4975501;28;20053;-76
2023/08/16 07:05:19;;;;;;;4.70;2.40;;;;;;;;;;4976566;28;20023;-74
2023/08/16 07:07:46;;;;;;;6.65;2.45;;;;;;;;;;4976784;28;20035;-77
2023/08/16 07:10:12;;;;;;;3.75;2.60;;;;;;;;;;4976436;28;20034;-76
2023/08/16 07:12:38;;;;;;;4.00;2.33;;;;;;;;;;4975125;28;20034;-75
2023/08/16 07:15:06;;;;;;;10.65;2.67;;;;;;;;;;4974671;28;20673;-76
2023/08/16 07:17:32;;;;;;;5.22;2.72;;;;;;;;;;4975857;28;20537;-75
2023/08/16 07:19:58;;;;;;;6.25;2.67;;;;;;;;;;4976390;28;20046;-75
2023/08/16 07:22:27;;;;;;;3.17;2.40;;;;;;;;;;4976364;28;20023;-76
2023/08/16 07:24:53;;;;;;;3.55;2.58;;;;;;;;;;4975772;28;20026;-75
2023/08/16 07:27:20;;;;;;;3.05;2.47;;;;;;;;;;4975112;28;20394;-76
2023/08/16 07:29:47;;;;;;;4.90;2.38;;;;;;;;;;4975852;28;20039;-75
2023/08/16 07:32:13;;;;;;;3.65;2.50;;;;;;;;;;4974677;28;20033;-76
2023/08/16 07:34:39;;;;;;;6.38;2.72;;;;;;;;;;4975952;28;20049;-77
2023/08/16 07:37:05;;;;;;;2.70;2.22;;;;;;;;;;4976017;28;20019;-77
2023/08/16 07:39:32;;;;;;;6.60;2.30;;;;;;;;;;4955234;29;20039;-76
2023/08/16 07:41:59;;;;;;;2.65;2.10;;;;;;;;;;4956803;29;20035;-76
2023/08/16 07:44:25;;;;;;;3.25;2.30;;;;;;;;;;4956298;29;20022;-75
2023/08/16 07:46:51;;;;;;;3.25;2.30;;;;;;;;;;4963561;28;20027;-76
2023/08/16 07:49:18;;;;;;;6.07;2.30;;;;;;;;;;4975414;28;20093;-76
2023/08/16 07:51:44;;;;;;;2.88;2.10;;;;;;;;;;4968428;28;20039;-75
2023/08/16 07:54:11;;;;;;;2.75;2.35;;;;;;;;;;4970890;28;20054;-76
2023/08/16 07:56:37;;;;;;;8.45;2.70;;;;;;;;;;4965729;28;20064;-77
2023/08/16 07:59:03;;;;;;;2.60;2.40;;;;;;;;;;4974008;28;20555;-77
2023/08/16 08:01:30;;;;;;;8.13;2.50;;;;;;;;;;4974197;28;20033;-77
2023/08/16 08:03:57;;;;;;;5.85;2.78;;;;;;;;;;4975129;28;20053;-76
2023/08/16 08:06:23;;;;;;;3.35;2.72;;;;;;;;;;4975474;28;20018;-77
2023/08/16 08:08:50;;;;;;;4.25;2.53;;;;;;;;;;4973364;28;20026;-76
2023/08/16 08:11:16;;;;;;;3.72;2.70;;;;;;;;;;4972714;28;20042;-73
2023/08/16 08:13:42;;;;;;;6.75;2.50;;;;;;;;;;4974076;28;20392;-74
2023/08/16 08:16:09;;;;;;;4.80;2.55;;;;;;;;;;4974874;28;20495;-72
2023/08/16 08:18:35;;;;;;;3.33;2.33;;;;;;;;;;4975037;28;20031;-73
2023/08/16 08:21:02;;;;;;;2.60;1.95;;;;;;;;;;4974502;28;20035;-73
2023/08/16 08:23:30;;;;;;;5.45;2.45;;;;;;;;;;4974938;28;20055;-73
2023/08/16 08:25:56;;;;;;;6.45;2.15;;;;;;;;;;4974743;28;20056;-73
2023/08/16 08:28:22;;;;;;;5.57;2.40;;;;;;;;;;4973977;28;20494;-73
2023/08/16 08:30:49;;;;;;;4.78;2.38;;;;;;;;;;4974510;28;20581;-73
2023/08/16 08:33:15;;;;;;;4.05;2.30;;;;;;;;;;4974556;28;20541;-72
2023/08/16 08:35:41;;;;;;;3.03;2.50;;;;;;;;;;4974843;28;20027;-72
2023/08/16 08:38:08;;;;;;;6.18;2.53;;;;;;;;;;4974565;28;20566;-73
2023/08/16 08:40:34;;;;;;;4.07;2.38;;;;;;;;;;4974799;28;20146;-73
2023/08/16 08:43:03;;;;;;;5.32;2.13;;;;;;;;;;4974390;28;20480;-73
2023/08/16 08:45:30;;;;;;;2.58;2.10;;;;;;;;;;4974465;28;20031;-73
2023/08/16 08:47:57;;;;;;;9.55;2.10;;;;;;;;;;4974614;28;20037;-73
2023/08/16 08:50:24;;;;;;;7.25;1.88;;;;;;;;;;4974501;28;20402;-72
2023/08/16 08:52:54;;;;;;;3.67;1.90;;;;;;;;;;4974436;28;20499;-73
2023/08/16 08:55:20;;;;;;;2.92;1.92;;;;;;;;;;4973266;28;20022;-73
2023/08/16 08:57:50;;;;;;;6.75;1.92;;;;;;;;;;4971559;28;20411;-73
2023/08/16 09:00:20;;;;;;;6.50;2.20;;;;;;;;;;4972818;28;20046;-72
2023/08/16 09:02:50;;;;;;;2.92;1.90;;;;;;;;;;4974197;28;20029;-73
2023/08/16 09:05:21;;;;;;;2.55;1.83;;;;;;;;;;4973564;28;20027;-73
2023/08/16 09:07:47;;;;;;;2.83;2.00;;;;;;;;;;4973623;28;20015;-72
2023/08/16 09:10:14;;;;;;;8.43;1.90;;;;;;;;;;4973625;28;20035;-72
2023/08/16 09:12:40;;;;;;;2.65;1.80;;;;;;;;;;4973845;28;20035;-73
2023/08/16 09:15:07;;;;;;;7.00;2.13;;;;;;;;;;4973882;28;20043;-73
2023/08/16 09:17:37;;;;;;;3.42;2.00;;;;;;;;;;4973768;28;20484;-73
2023/08/16 09:20:06;;;;;;;3.22;1.80;;;;;;;;;;4974214;28;20053;-73
2023/08/16 09:22:32;;;;;;;6.25;2.10;;;;;;;;;;4973976;28;20019;-72
2023/08/16 09:24:59;;;;;;;2.83;2.20;;;;;;;;;;4973617;28;20097;-73
2023/08/16 09:27:26;;;;;;;2.72;1.70;;;;;;;;;;4973418;28;20033;-72
2023/08/16 09:29:55;;;;;;;6.28;1.60;;;;;;;;;;4974170;28;20033;-72
2023/08/16 09:32:22;;;;;;;3.23;1.80;;;;;;;;;;4974114;28;20026;-73
2023/08/16 09:34:49;;;;;;;2.63;1.70;;;;;;;;;;4973669;28;20391;-74
2023/08/16 09:37:15;;;;;;;3.42;2.08;;;;;;;;;;4973529;28;20390;-73
2023/08/16 09:39:42;;;;;;;5.03;2.22;;;;;;;;;;4973336;28;20038;-73
2023/08/16 09:42:08;;;;;;;7.15;1.80;;;;;;;;;;4973187;28;20034;-74
2023/08/16 09:44:36;;;;;;;3.50;1.73;;;;;;;;;;4973082;28;20076;-73
2023/08/16 09:47:13;;;;;;;4.45;2.08;;;;;;;;;;4973694;28;20030;-73
2023/08/16 09:49:39;;;;;;;7.30;2.03;;;;;;;;;;4973492;28;20018;-74
2023/08/16 09:52:10;;;;;;;5.00;2.05;;;;;;;;;;4971937;28;20031;-75
2023/08/16 09:54:37;;;;;;;5.40;1.85;;;;;;;;;;4973101;28;20019;-73
2023/08/16 09:57:04;;;;;;;3.58;1.70;;;;;;;;;;4988366;28;20030;-72
2023/08/16 09:59:34;;;;;;;4.15;1.90;;;;;;;;;;4973072;28;20502;-73
2023/08/16 10:02:00;;;;;;;3.38;1.92;;;;;;;;;;4972861;28;20010;-74
2023/08/16 10:04:28;;;;;;;3.15;1.83;;;;;;;;;;4973423;28;20041;-74
2023/08/16 10:06:55;;;;;;;2.35;1.65;;;;;;;;;;4973574;28;20057;-74
2023/08/16 10:09:22;;;;;;;5.38;1.77;;;;;;;;;;4973260;28;20487;-74
2023/08/16 10:11:49;;;;;;;6.68;1.60;;;;;;;;;;4973515;28;20029;-74
2023/08/16 10:14:15;;;;;;;2.60;1.70;;;;;;;;;;4972201;28;20035;-74
2023/08/16 10:16:43;;;;;;;3.20;2.00;;;;;;;;;;4973104;28;20050;-74
2023/08/16 10:19:13;;;;;;;5.50;1.90;;;;;;;;;;4973053;28;20046;-74
2023/08/16 10:21:41;;;;;;;5.25;2.35;;;;;;;;;;4973386;28;20495;-74
2023/08/16 10:24:10;;;;;;;3.75;2.17;;;;;;;;;;4973171;28;20034;-74
2023/08/16 10:26:37;;;;;;;2.83;1.50;;;;;;;;;;4973646;28;20031;-74
2023/08/16 10:29:07;;;;;;;9.23;2.05;;;;;;;;;;4973262;28;20027;-74
2023/08/16 10:31:33;;;;;;;;;;;;;;;;;;4973755;28;20080;-74
2023/08/16 10:34:00;;;;;;;6.75;1.85;;;;;;;;;;4973709;28;19906;-74
2023/08/16 10:36:27;;;;;;;3.42;2.00;;;;;;;;;;4973194;28;20382;-75
2023/08/16 10:38:56;;;;;;;4.70;1.88;;;;;;;;;;4972502;28;20481;-74
2023/08/16 10:41:23;;;;;;;4.35;1.85;;;;;;;;;;4973142;28;20527;-74
2023/08/16 10:43:50;;;;;;;8.68;1.63;;;;;;;;;;4973158;28;20031;-74
2023/08/16 10:46:25;;;;;;;4.03;2.00;;;;;;;;;;4973119;28;20031;-75
2023/08/16 10:48:56;;;;;;;3.10;1.77;;;;;;;;;;4972952;28;20434;-74
2023/08/16 10:51:23;;;;;;;4.50;1.83;;;;;;;;;;4973125;28;20023;-74
2023/08/16 10:53:50;;;;;;;2.83;1.90;;;;;;;;;;4973026;28;20033;-74
2023/08/16 10:56:19;;;;;;;4.00;1.85;;;;;;;;;;4972964;28;20419;-74
2023/08/16 10:58:52;;;;;;;2.37;1.87;;;;;;;;;;4973255;28;20019;-75
2023/08/16 11:01:20;;;;;;;7.38;1.75;;;;;;;;;;4973024;28;20041;-75
2023/08/16 11:03:49;;;;;;;4.30;2.10;;;;;;;;;;4972957;28;20021;-73
2023/08/16 11:06:16;;;;;;;4.88;1.73;;;;;;;;;;4973029;28;20030;-74
2023/08/16 11:08:43;;;;;;;7.25;2.10;;;;;;;;;;4972755;28;20030;-74
2023/08/16 11:11:10;;;;;;;8.02;1.85;;;;;;;;;;4972868;28;20023;-74
2023/08/16 11:13:36;;;;;;;3.85;1.80;;;;;;;;;;4972712;28;20491;-74
2023/08/16 11:16:03;;;;;;;5.60;1.73;;;;;;;;;;4972742;28;20050;-73
2023/08/16 11:18:30;;;;;;;3.47;1.95;;;;;;;;;;4972686;28;20041;-74
2023/08/16 11:21:00;;;;;;;3.47;1.98;;;;;;;;;;4972729;28;20034;-74
2023/08/16 11:23:31;;;;;;;5.22;2.00;;;;;;;;;;4972458;28;20027;-74
2023/08/16 11:26:01;;;;;;;6.30;2.00;;;;;;;;;;4972679;28;20037;-74
2023/08/16 11:28:28;;;;;;;3.05;2.00;;;;;;;;;;4973987;28;20027;-74
2023/08/16 11:30:58;;;;;;;3.83;1.73;;;;;;;;;;4976566;28;20031;-73
2023/08/16 11:33:25;;;;;;;4.00;2.05;;;;;;;;;;4976664;28;20030;-74
2023/08/16 11:35:53;;;;;;;5.75;2.10;;;;;;;;;;4975995;28;20038;-74
2023/08/16 11:38:21;;;;;;;7.03;2.25;;;;;;;;;;4976262;28;20073;-74
2023/08/16 11:40:48;;;;;;;5.60;2.22;;;;;;;;;;4975960;28;20046;-74
2023/08/16 11:43:14;;;;;;;3.00;1.98;;;;;;;;;;4976218;28;20037;-74
2023/08/16 11:45:40;;;;;;;4.35;2.22;;;;;;;;;;4976034;28;20499;-74
2023/08/16 11:48:07;;;;;;;5.07;1.95;;;;;;;;;;4976077;28;20027;-75
2023/08/16 11:50:37;;;;;;;4.25;1.95;;;;;;;;;;4975706;28;20382;-74
2023/08/16 11:53:05;;;;;;;3.05;2.17;;;;;;;;;;4976183;28;20026;-74
2023/08/16 11:55:33;;;;;;;2.35;1.77;;;;;;;;;;4975667;28;20390;-74
2023/08/16 11:58:03;;;;;;;6.78;2.10;;;;;;;;;;4975753;28;20033;-74
2023/08/16 12:00:29;;;;;;;3.72;2.10;;;;;;;;;;4975809;28;20046;-74
2023/08/16 12:03:01;;;;;;;4.35;2.25;;;;;;;;;;4975767;28;20027;-74
2023/08/16 12:05:34;;;;;;;3.60;2.05;;;;;;;;;;4975586;28;20027;-75
2023/08/16 12:08:03;;;;;;;6.85;2.25;;;;;;;;;;4975577;28;20029;-74
2023/08/16 12:10:32;;;;;;;5.43;2.20;;;;;;;;;;4975830;28;20025;-74
2023/08/16 12:12:59;;;;;;;7.70;2.10;;;;;;;;;;4975402;28;20037;-74
2023/08/16 12:15:26;;;;;;;6.07;2.55;;;;;;;;;;4975592;28;20042;-74
2023/08/16 12:17:52;;;;;;;8.20;2.40;;;;;;;;;;4975157;28;20030;-74
2023/08/16 12:20:19;;;;;;;3.42;1.90;;;;;;;;;;4974983;28;20037;-74
2023/08/16 12:22:46;;;;;;;3.15;1.98;;;;;;;;;;4975681;28;20042;-74
2023/08/16 12:25:12;;;;;;;3.22;2.15;;;;;;;;;;4975466;28;20026;-74
2023/08/16 12:27:39;;;;;;;7.60;2.30;;;;;;;;;;4975447;28;20052;-75
2023/08/16 12:30:06;;;;;;;11.38;2.33;;;;;;;;;;4975425;28;20039;-75
2023/08/16 12:32:32;;;;;;;4.25;2.20;;;;;;;;;;4975233;28;20026;-74
2023/08/16 12:34:58;;;;;;;7.68;2.42;;;;;;;;;;4974679;28;20027;-74
2023/08/16 12:37:25;;;;;;;6.80;2.00;;;;;;;;;;4975332;28;20077;-74
2023/08/16 12:39:51;;;;;;;4.50;2.00;;;;;;;;;;4973822;28;20035;-75
2023/08/16 12:42:17;;;;;;;4.10;1.80;;;;;;;;;;4974895;28;20386;-74
2023/08/16 12:44:44;;;;;;;5.75;1.80;;;;;;;;;;4975043;28;20023;-75
2023/08/16 12:47:10;;;;;;;5.03;2.13;;;;;;;;;;4974916;28;20037;-74
2023/08/16 12:49:37;;;;;;;3.50;2.17;;;;;;;;;;4974643;28;20031;-73
2023/08/16 12:52:03;;;;;;;5.10;2.00;;;;;;;;;;4975202;28;20037;-74
2023/08/16 12:54:29;;;;;;;5.78;1.92;;;;;;;;;;4975258;28;20026;-74
2023/08/16 12:56:56;;;;;;;3.00;1.73;;;;;;;;;;4974616;28;20502;-74
2023/08/16 12:59:22;;;;;;;6.95;1.90;;;;;;;;;;4974867;28;20038;-74
2023/08/16 13:01:49;;;;;;;4.10;1.70;;;;;;;;;;4974574;28;20170;-74
2023/08/16 13:04:15;;;;;;;3.10;1.80;;;;;;;;;;4974129;28;20533;-75
2023/08/16 13:06:41;;;;;;;3.88;2.00;;;;;;;;;;4974607;28;20030;-74
2023/08/16 13:09:08;;;;;;;5.53;1.80;;;;;;;;;;4974482;28;20475;-74
2023/08/16 13:11:35;;;;;;;4.68;1.80;;;;;;;;;;4974570;28;20035;-74
2023/08/16 13:14:01;;;;;;;2.60;1.88;;;;;;;;;;4974297;28;20049;-74
2023/08/16 13:16:28;;;;;;;2.95;1.77;;;;;;;;;;4974122;28;20408;-74
2023/08/16 13:18:54;;;;;;;2.13;1.73;;;;;;;;;;4973922;28;20037;-74
2023/08/16 13:21:22;;;;;;;4.13;1.88;;;;;;;;;;4974222;28;20039;-74
2023/08/16 13:23:50;;;;;;;5.00;2.00;;;;;;;;;;4974229;28;20383;-74
2023/08/16 13:26:16;;;;;;;5.10;2.00;;;;;;;;;;4974371;28;20030;-74
2023/08/16 13:28:43;;;;;;;3.97;1.75;;;;;;;;;;4974189;28;20019;-75
2023/08/16 13:31:12;;;;;;;2.70;1.95;;;;;;;;;;4974424;28;20097;-74
2023/08/16 13:33:38;;;;;;;3.67;1.75;;;;;;;;;;4973917;28;20096;-75
2023/08/16 13:36:05;;;;;;;9.35;2.08;;;;;;;;;;4974174;28;20037;-74
2023/08/16 13:38:31;;;;;;;3.22;1.92;;;;;;;;;;4973751;28;20038;-74
2023/08/16 13:40:57;;;;;;;5.13;2.10;;;;;;;;;;4973936;28;20027;-75
2023/08/16 13:43:25;;;;;;;5.28;1.88;;;;;;;;;;4974010;28;20022;-74
2023/08/16 13:45:51;;;;;;;7.47;1.67;;;;;;;;;;4973812;28;20387;-74
2023/08/16 13:48:18;;;;;;;5.10;1.70;;;;;;;;;;4973442;28;20029;-75
2023/08/16 13:50:44;;;;;;;3.85;1.65;;;;;;;;;;4973767;28;20022;-75
2023/08/16 13:53:10;;;;;;;6.78;1.85;;;;;;;;;;4973721;28;20023;-74
2023/08/16 13:55:37;;;;;;;7.70;2.00;;;;;;;;;;4973634;28;20041;-74
2023/08/16 13:58:03;;;;;;;4.65;1.95;;;;;;;;;;4973566;28;20491;-75
2023/08/16 14:00:29;;;;;;;6.10;2.00;;;;;;;;;;4973508;28;20034;-75
2023/08/16 14:02:56;;;;;;;6.07;1.65;;;;;;;;;;4973173;28;20019;-75
2023/08/16 14:05:22;;;;;;;4.13;1.85;;;;;;;;;;4973743;28;20487;-74
2023/08/16 14:07:48;;;;;;;5.22;1.60;;;;;;;;;;4973802;28;20029;-74
2023/08/16 14:10:14;;;;;;;4.18;2.00;;;;;;;;;;4973432;28;20390;-74
2023/08/16 14:12:41;;;;;;;6.20;2.03;;;;;;;;;;4973536;28;20092;-74
2023/08/16 14:15:08;;;;;;;4.63;1.60;;;;;;;;;;4973265;28;20096;-74
2023/08/16 14:17:34;;;;;;;2.85;1.70;;;;;;;;;;4972643;28;20018;-75
2023/08/16 14:20:00;;;;;;;3.55;1.80;;;;;;;;;;4973540;28;20031;-74
2023/08/16 14:22:27;;;;;;;5.75;1.80;;;;;;;;;;4973657;28;20023;-75
2023/08/16 14:24:53;;;;;;;5.60;2.10;;;;;;;;;;4973495;28;20042;-74
2023/08/16 14:27:19;;;;;;;6.97;1.98;;;;;;;;;;4973572;28;20037;-74
2023/08/16 14:29:46;;;;;;;5.65;1.80;;;;;;;;;;4973266;28;20037;-75
2023/08/16 14:32:12;;;;;;;2.72;1.70;;;;;;;;;;4973264;28;20019;-75
2023/08/16 14:34:38;;;;;;;3.40;2.05;;;;;;;;;;4971887;28;20039;-74
2023/08/16 14:37:05;;;;;;;3.97;2.25;;;;;;;;;;4973043;28;20037;-74
2023/08/16 14:39:31;;;;;;;7.03;1.83;;;;;;;;;;4973039;28;20037;-74
2023/08/16 14:41:57;;;;;;;6.20;1.85;;;;;;;;;;4973468;28;20030;-74
2023/08/16 14:44:24;;;;;;;2.03;1.50;;;;;;;;;;4972772;28;20027;-74
2023/08/16 14:46:50;;;;;;;7.28;1.67;;;;;;;;;;4973389;28;20043;-74
2023/08/16 14:49:19;;;;;;;6.05;1.80;;;;;;;;;;4973151;28;20019;-74
2023/08/16 14:51:45;;;;;;;4.10;1.88;;;;;;;;;;4972972;28;20039;-75
2023/08/16 14:54:11;;;;;;;2.85;1.70;;;;;;;;;;4973227;28;20030;-74
2023/08/16 14:56:38;;;;;;;3.13;1.60;;;;;;;;;;4972967;28;20491;-75
2023/08/16 14:59:04;;;;;;;3.05;1.90;;;;;;;;;;4972761;28;20073;-74
2023/08/16 15:01:30;;;;;;;4.32;1.73;;;;;;;;;;4972863;28;20035;-74
2023/08/16 15:03:57;;;;;;;2.53;2.00;;;;;;;;;;4974942;28;20026;-74
2023/08/16 15:06:23;;;;;;;4.93;2.28;;;;;;;;;;4976647;28;20077;-74
2023/08/16 15:08:49;;;;;;;3.55;2.15;;;;;;;;;;4976711;28;20541;-74
2023/08/16 15:11:17;;;;;;;4.05;2.00;;;;;;;;;;4976823;28;20015;-75
2023/08/16 15:13:43;;;;;;;3.10;1.73;;;;;;;;;;4976177;28;20517;-74
2023/08/16 15:16:10;;;;;;;9.18;2.30;;;;;;;;;;4976466;28;20054;-75
2023/08/16 15:18:36;;;;;;;3.35;1.90;;;;;;;;;;4976122;28;20499;-75
2023/08/16 15:21:03;;;;;;;2.90;1.90;;;;;;;;;;4976413;28;20049;-74
2023/08/16 15:23:29;;;;;;;4.10;2.33;;;;;;;;;;4976276;28;20479;-74
2023/08/16 15:25:58;;;;;;;4.38;1.80;;;;;;;;;;4976496;28;20027;-74
2023/08/16 15:28:25;;;;;;;4.40;1.98;;;;;;;;;;4976038;28;20386;-74
2023/08/16 15:30:56;;;;;;;3.55;1.80;;;;;;;;;;4976240;28;20026;-74
2023/08/16 15:33:23;;;;;;;5.13;2.13;;;;;;;;;;4976656;28;20030;-74
2023/08/16 15:35:50;;;;;;;3.97;2.15;;;;;;;;;;4976387;28;20034;-74
2023/08/16 15:38:35;;;;;;;6.60;1.90;;;;;;;;;;4976179;28;20019;-74
2023/08/16 15:41:01;;;;;;;4.65;1.90;;;;;;;;;;4976033;28;20050;-74
2023/08/16 15:43:27;;;;;;;4.68;1.95;;;;;;;;;;4976203;28;20043;-74
2023/08/16 15:45:54;;;;;;;4.60;2.08;;;;;;;;;;4976048;28;20454;-74
2023/08/16 15:48:20;;;;;;;3.92;2.13;;;;;;;;;;4976232;28;20019;-74
2023/08/16 15:50:49;;;;;;;2.80;2.13;;;;;;;;;;4975976;28;20019;-75
2023/08/16 15:53:15;;;;;;;7.13;2.40;;;;;;;;;;4976160;28;20031;-74
2023/08/16 15:55:41;;;;;;;5.03;2.00;;;;;;;;;;4975818;28;20019;-74
2023/08/16 15:58:08;;;;;;;3.88;2.40;;;;;;;;;;4975487;28;20031;-74
2023/08/16 16:00:34;;;;;;;6.43;2.40;;;;;;;;;;4975683;28;20035;-74
2023/08/16 16:03:00;;;;;;;3.92;2.33;;;;;;;;;;4975931;28;20030;-74
2023/08/16 16:05:26;;;;;;;2.83;2.00;;;;;;;;;;4975857;28;20026;-74
2023/08/16 16:07:53;;;;;;;4.28;2.10;;;;;;;;;;4975595;28;20031;-74
2023/08/16 16:10:19;;;;;;;4.72;2.10;;;;;;;;;;4975847;28;20039;-75
2023/08/16 16:12:45;;;;;;;3.83;2.10;;;;;;;;;;4975115;28;20027;-75
2023/08/16 16:15:12;;;;;;;4.10;2.08;;;;;;;;;;4975105;28;20053;-75
2023/08/16 16:17:38;;;;;;;4.85;2.13;;;;;;;;;;4975046;28;20488;-75
2023/08/16 16:20:05;;;;;;;3.53;1.98;;;;;;;;;;4975350;28;20037;-74
2023/08/16 16:22:31;;;;;;;4.95;2.13;;;;;;;;;;4975528;28;20077;-75
2023/08/16 16:24:58;;;;;;;8.40;2.97;;;;;;;;;;4975265;28;20053;-75
2023/08/16 16:27:24;;;;;;;5.53;2.10;;;;;;;;;;4974975;28;20034;-74
2023/08/16 16:29:50;;;;;;;2.03;1.80;;;;;;;;;;4975309;28;20026;-74
2023/08/16 16:32:16;;;;;;;8.13;2.17;;;;;;;;;;4975160;28;20022;-74
2023/08/16 16:34:43;;;;;;;3.83;2.10;;;;;;;;;;4975438;28;20475;-75
2023/08/16 16:37:09;;;;;;;5.68;2.10;;;;;;;;;;4974905;28;20039;-74
2023/08/16 16:39:36;;;;;;;7.30;2.05;;;;;;;;;;4974991;28;20023;-74
2023/08/16 16:42:04;;;;;;;5.55;2.20;;;;;;;;;;4974853;28;20508;-74
2023/08/16 16:44:30;;;;;;;3.42;1.95;;;;;;;;;;4975290;28;20029;-74
2023/08/16 16:46:57;;;;;;;4.20;1.90;;;;;;;;;;4974901;28;20391;-74
2023/08/16 16:49:23;;;;;;;2.95;2.00;;;;;;;;;;4975042;28;20033;-75
2023/08/16 16:51:49;;;;;;;2.88;2.17;;;;;;;;;;4974864;28;20446;-75
2023/08/16 16:54:15;;;;;;;3.25;2.00;;;;;;;;;;4974815;28;20023;-74
2023/08/16 16:56:42;;;;;;;3.33;2.13;;;;;;;;;;4974357;28;20390;-74
2023/08/16 16:59:08;;;;;;;4.80;2.30;;;;;;;;;;4974663;28;20393;-74
2023/08/16 17:01:34;;;;;;;2.72;1.90;;;;;;;;;;4973310;28;20037;-74
2023/08/16 17:04:01;;;;;;;4.20;2.08;;;;;;;;;;4974914;28;20023;-74
2023/08/16 17:06:27;;;;;;;4.25;1.83;;;;;;;;;;4974585;28;20483;-74
2023/08/16 17:08:55;;;;;;;4.53;2.08;;;;;;;;;;4974667;28;20035;-74
2023/08/16 17:11:22;;;;;;;5.32;2.35;;;;;;;;;;4974184;28;20498;-74
2023/08/16 17:13:50;;;;;;;4.85;2.10;;;;;;;;;;4974393;28;20026;-74
2023/08/16 17:16:16;;;;;;;4.53;2.15;;;;;;;;;;4974305;28;20043;-74
2023/08/16 17:18:43;;;;;;;3.78;2.15;;;;;;;;;;4973992;28;20511;-74
2023/08/16 17:21:14;;;;;;;3.40;2.00;;;;;;;;;;4974313;28;20045;-74
2023/08/16 17:23:47;;;;;;;2.58;1.83;;;;;;;;;;4974252;28;20029;-74
2023/08/16 17:26:13;;;;;;;4.55;2.22;;;;;;;;;;4973381;28;20394;-74
2023/08/16 17:28:40;;;;;;;3.33;2.10;;;;;;;;;;4974266;28;20475;-74
2023/08/16 17:31:08;;;;;;;7.68;2.28;;;;;;;;;;4974431;28;20043;-74
2023/08/16 17:33:37;;;;;;;5.60;2.05;;;;;;;;;;4974005;28;20034;-74
2023/08/16 17:36:04;;;;;;;7.20;2.10;;;;;;;;;;4974364;28;20039;-74
2023/08/16 17:38:31;;;;;;;6.10;2.20;;;;;;;;;;4973537;28;20017;-74
2023/08/16 17:40:57;;;;;;;2.67;1.90;;;;;;;;;;4973855;28;20518;-74
2023/08/16 17:43:24;;;;;;;3.90;2.00;;;;;;;;;;4973968;28;20030;-75
2023/08/16 17:45:50;;;;;;;5.05;1.88;;;;;;;;;;4974232;28;20045;-74
2023/08/16 17:48:16;;;;;;;5.18;2.25;;;;;;;;;;4973899;28;20023;-74
2023/08/16 17:50:42;;;;;;;2.55;1.80;;;;;;;;;;4973811;28;20018;-74
2023/08/16 17:53:09;;;;;;;6.28;2.38;;;;;;;;;;4973657;28;20026;-74
2023/08/16 17:55:35;;;;;;;4.30;2.63;;;;;;;;;;4973672;28;20022;-75
2023/08/16 17:58:01;;;;;;;4.47;2.67;;;;;;;;;;4973519;28;20033;-75
2023/08/16 18:00:28;;;;;;;4.57;2.55;;;;;;;;;;4973647;28;20033;-75
2023/08/16 18:02:54;;;;;;;2.60;2.40;;;;;;;;;;4973521;28;20031;-74
2023/08/16 18:05:21;;;;;;;3.55;2.30;;;;;;;;;;4973651;28;20492;-74
2023/08/16 18:07:47;;;;;;;8.82;2.55;;;;;;;;;;4973467;28;20031;-74
2023/08/16 18:10:13;;;;;;;3.72;2.33;;;;;;;;;;4973469;28;20027;-74
2023/08/16 18:12:39;;;;;;;3.42;2.30;;;;;;;;;;4973530;28;20029;-74
2023/08/16 18:15:06;;;;;;;4.05;2.50;;;;;;;;;;4973222;28;20499;-74
2023/08/16 18:17:34;;;;;;;8.55;2.42;;;;;;;;;;4971569;28;20529;-74
2023/08/16 18:20:01;;;;;;;5.07;2.05;;;;;;;;;;4973343;28;20034;-75
2023/08/16 18:22:28;;;;;;;3.55;2.20;;;;;;;;;;4973074;28;20039;-74
2023/08/16 18:24:54;;;;;;;5.10;2.00;;;;;;;;;;4973510;28;20053;-75
2023/08/16 18:27:20;;;;;;;7.00;2.10;;;;;;;;;;4973274;28;20041;-74
2023/08/16 18:29:47;;;;;;;2.85;1.90;;;;;;;;;;4973151;28;20015;-74
2023/08/16 18:32:13;;;;;;;5.88;2.08;;;;;;;;;;4973099;28;20022;-74
2023/08/16 18:34:39;;;;;;;8.20;2.20;;;;;;;;;;4973390;28;20026;-74
2023/08/16 18:37:06;;;;;;;5.30;2.10;;;;;;;;;;4973325;28;20035;-74
2023/08/16 18:39:32;;;;;;;3.80;1.92;;;;;;;;;;4977364;28;20031;-75
2023/08/16 18:41:58;;;;;;;4.93;2.35;;;;;;;;;;4976111;28;20400;-74
2023/08/16 18:44:25;;;;;;;6.07;2.30;;;;;;;;;;4977122;28;20031;-75
2023/08/16 18:46:51;;;;;;;2.83;1.73;;;;;;;;;;4977045;28;20029;-74
2023/08/16 18:49:17;;;;;;;3.38;2.25;;;;;;;;;;4977096;28;20037;-74
2023/08/16 18:51:43;;;;;;;6.97;2.13;;;;;;;;;;4975439;28;20037;-74
2023/08/16 18:54:10;;;;;;;3.53;1.95;;;;;;;;;;4976882;28;20026;-74
2023/08/16 18:56:36;;;;;;;2.15;1.92;;;;;;;;;;4976942;28;20484;-74
2023/08/16 18:59:02;;;;;;;8.73;3.50;;;;;;;;;;4976965;28;20033;-74
2023/08/16 19:01:30;;;;;;;4.22;3.72;;;;;;;;;;4976868;28;20049;-74
2023/08/16 19:03:57;;;;;;;7.95;2.22;;;;;;;;;;4976870;28;20029;-74
2023/08/16 19:06:23;;;;;;;4.72;1.92;;;;;;;;;;4976293;28;20491;-74
2023/08/16 19:08:50;;;;;;;3.90;1.73;;;;;;;;;;4976612;28;20475;-75
2023/08/16 19:11:16;;;;;;;4.38;1.75;;;;;;;;;;4976811;28;20037;-75
2023/08/16 19:13:43;;;;;;;2.25;1.80;;;;;;;;;;4976390;28;20514;-74
2023/08/16 19:16:09;;;;;;;4.35;1.80;;;;;;;;;;4976405;28;20050;-74
2023/08/16 19:18:36;;;;;;;4.78;1.90;;;;;;;;;;4976499;28;20034;-74
2023/08/16 19:21:02;;;;;;;4.20;2.13;;;;;;;;;;4976110;28;20034;-74
2023/08/16 19:23:28;;;;;;;3.38;1.80;;;;;;;;;;4975282;28;20097;-74
2023/08/16 19:25:54;;;;;;;5.05;1.80;;;;;;;;;;4976450;28;20037;-74
2023/08/16 19:28:21;;;;;;;3.30;2.35;;;;;;;;;;4976664;28;20019;-74
2023/08/16 19:30:47;;;;;;;3.05;1.85;;;;;;;;;;4975041;28;20031;-74
2023/08/16 19:33:13;;;;;;;3.45;1.67;;;;;;;;;;4976832;28;20031;-74
2023/08/16 19:35:40;;;;;;;6.38;2.10;;;;;;;;;;4975863;28;20027;-74
2023/08/16 19:38:06;;;;;;;2.80;2.00;;;;;;;;;;4976030;28;20029;-74
2023/08/16 19:40:32;;;;;;;3.13;1.85;;;;;;;;;;4976169;28;20105;-74
2023/08/16 19:42:59;;;;;;;2.75;2.00;;;;;;;;;;4975054;28;20019;-74
2023/08/16 19:45:25;;;;;;;4.65;2.03;;;;;;;;;;4976033;28;20023;-74
2023/08/16 19:47:51;;;;;;;4.65;2.20;;;;;;;;;;4976140;28;20023;-74
2023/08/16 19:50:19;;;;;;;4.88;2.08;;;;;;;;;;4974757;28;20418;-74
2023/08/16 19:52:48;;;;;;;5.85;2.70;;;;;;;;;;4976255;28;20034;-74
2023/08/16 19:55:14;;;;;;;3.63;2.22;;;;;;;;;;4976024;28;20021;-74
2023/08/16 19:57:41;;;;;;;5.53;2.00;;;;;;;;;;4975953;28;20026;-74
2023/08/16 20:00:09;;;;;;;3.63;2.25;;;;;;;;;;4975870;28;20019;-74
2023/08/16 20:02:36;;;;;;;3.63;1.85;;;;;;;;;;4975788;28;20041;-74
2023/08/16 20:05:03;;;;;;;5.68;2.30;;;;;;;;;;4975181;28;20049;-74
2023/08/16 20:07:29;;;;;;;3.33;2.38;;;;;;;;;;4975577;28;20030;-74
2023/08/16 20:09:56;;;;;;;4.95;2.25;;;;;;;;;;4974427;28;20045;-74
2023/08/16 20:12:22;;;;;;;5.88;2.22;;;;;;;;;;4975449;28;20138;-74
2023/08/16 20:14:49;;;;;;;7.60;2.60;;;;;;;;;;4975288;28;20057;-75
2023/08/16 20:17:15;;;;;;;5.40;2.47;;;;;;;;;;4975517;28;20037;-74
2023/08/16 20:19:44;;;;;;;4.35;2.25;;;;;;;;;;4975056;28;20035;-74
2023/08/16 20:22:10;;;;;;;2.88;1.90;;;;;;;;;;4975389;28;20034;-74
2023/08/16 20:24:36;;;;;;;5.20;2.22;;;;;;;;;;4975438;28;20033;-74
2023/08/16 20:27:03;;;;;;;2.85;2.10;;;;;;;;;;4975210;28;20026;-74
2023/08/16 20:29:29;;;;;;;2.63;2.00;;;;;;;;;;4975386;28;20395;-74
2023/08/16 20:31:55;;;;;;;6.18;2.35;;;;;;;;;;4975241;28;20048;-74
2023/08/16 20:34:22;;;;;;;3.05;2.20;;;;;;;;;;4974859;28;20403;-74
2023/08/16 20:36:48;;;;;;;5.07;2.35;;;;;;;;;;4973870;28;20480;-74
2023/08/16 20:39:15;;;;;;;5.28;2.35;;;;;;;;;;4975416;28;20027;-74
2023/08/16 20:41:41;;;;;;;4.97;2.10;;;;;;;;;;4974872;28;20402;-73
2023/08/16 20:44:07;;;;;;;3.00;1.67;;;;;;;;;;4975295;28;20029;-73
2023/08/16 20:46:37;;;;;;;2.95;2.42;;;;;;;;;;4975004;28;20031;-74
2023/08/16 20:49:11;;;;;;;5.32;2.03;;;;;;;;;;4974902;28;20023;-74
2023/08/16 20:51:38;;;;;;;3.17;1.85;;;;;;;;;;4974918;28;20025;-74
2023/08/16 20:54:05;;;;;;;3.13;1.73;;;;;;;;;;4975169;28;20030;-75
2023/08/16 20:56:34;;;;;;;2.38;1.95;;;;;;;;;;4975000;28;20034;-74